createdAt,value
2023-04-14T00:02:08.655Z,11.32
2023-04-14T00:04:39.710Z,10.38
2023-04-14T00:07:08.147Z,9.48
2023-04-14T00:09:36.607Z,8.85
2023-04-14T00:12:07.095Z,8.02
2023-04-14T00:14:35.960Z,10.40
2023-04-14T00:17:04.366Z,9.65
2023-04-14T00:19:32.778Z,10.20
2023-04-14T00:22:03.451Z,10.18
2023-04-14T00:24:31.920Z,7.55
2023-04-14T00:27:01.212Z,7.57
2023-04-14T00:29:31.018Z,6.80
2023-04-14T00:31:59.406Z,7.05
2023-04-14T00:34:27.821Z,7.68
2023-04-14T00:36:56.215Z,7.43
2023-04-14T00:39:26.841Z,7.20
2023-04-14T00:41:56.751Z,7.13
2023-04-14T00:44:25.451Z,6.25
2023-04-14T00:46:55.875Z,6.97
2023-04-14T00:49:24.586Z,6.80
2023-04-14T00:51:53.336Z,6.78
2023-04-14T00:54:21.750Z,7.63
2023-04-14T00:56:51.338Z,7.70
2023-04-14T00:59:19.815Z,7.72
2023-04-14T01:01:49.725Z,8.95
2023-04-14T01:04:22.919Z,7.90
2023-04-14T01:06:51.390Z,7.00
2023-04-14T01:09:19.773Z,7.95
2023-04-14T01:11:55.091Z,5.40
2023-04-14T01:14:32.475Z,6.22
2023-04-14T01:17:03.330Z,6.65
2023-04-14T01:19:44.331Z,6.22
2023-04-14T01:22:14.953Z,6.47
2023-04-14T01:24:52.943Z,6.55
2023-04-14T01:27:31.270Z,6.05
2023-04-14T01:30:04.923Z,6.47
2023-04-14T01:32:41.177Z,6.38
2023-04-14T01:35:11.532Z,6.53
2023-04-14T01:37:42.857Z,6.18
2023-04-14T01:40:13.622Z,6.50
2023-04-14T01:42:46.439Z,6.75
2023-04-14T01:45:25.443Z,6.93
2023-04-14T01:47:56.920Z,7.07
2023-04-14T01:50:27.073Z,6.72
2023-04-14T01:52:55.742Z,7.38
2023-04-14T01:55:25.514Z,7.57
2023-04-14T01:57:55.082Z,6.78
2023-04-14T02:00:24.283Z,6.45
2023-04-14T02:02:54.437Z,6.85
2023-04-14T02:05:24.941Z,6.18
2023-04-14T02:07:54.658Z,6.65
2023-04-14T02:10:23.864Z,6.60
2023-04-14T02:12:53.862Z,6.53
2023-04-14T02:15:24.056Z,6.00
2023-04-14T02:17:52.992Z,6.57
2023-04-14T02:20:22.575Z,6.53
2023-04-14T02:22:52.533Z,5.72
2023-04-14T02:25:22.575Z,6.95
2023-04-14T02:27:54.469Z,6.47
2023-04-14T02:30:24.471Z,5.70
2023-04-14T02:32:55.456Z,5.45
2023-04-14T02:35:27.023Z,5.40
2023-04-14T02:37:58.917Z,5.25
2023-04-14T02:40:29.200Z,6.18
2023-04-14T02:42:59.471Z,5.47
2023-04-14T02:45:29.352Z,5.40
2023-04-14T02:48:00.019Z,5.80
2023-04-14T02:50:30.442Z,6.00
2023-04-14T02:53:07.871Z,6.00
2023-04-14T02:55:38.923Z,6.77
2023-04-14T02:58:07.401Z,6.57
2023-04-14T03:00:40.105Z,5.57
2023-04-14T03:03:09.657Z,5.80
2023-04-14T03:05:40.760Z,5.68
2023-04-14T03:08:13.255Z,5.53
2023-04-14T03:10:46.687Z,5.65
2023-04-14T03:15:46.575Z,5.97
2023-04-14T03:18:16.176Z,7.13
2023-04-14T03:20:45.821Z,7.35
2023-04-14T03:23:18.901Z,7.32
2023-04-14T03:25:53.819Z,8.00
2023-04-14T03:28:29.133Z,7.38
2023-04-14T03:31:01.203Z,7.10
2023-04-14T03:33:35.431Z,6.75
2023-04-14T03:36:04.876Z,6.45
2023-04-14T03:38:36.359Z,6.72
2023-04-14T03:41:09.545Z,6.55
2023-04-14T03:43:38.200Z,6.97
2023-04-14T03:46:11.046Z,6.88
2023-04-14T03:48:42.866Z,6.47
2023-04-14T03:51:15.929Z,6.45
2023-04-14T03:53:47.967Z,6.40
2023-04-14T03:56:19.416Z,6.60
2023-04-14T03:58:50.564Z,6.63
2023-04-14T04:01:20.409Z,6.60
2023-04-14T04:03:49.846Z,7.15
2023-04-14T04:06:19.096Z,6.32
2023-04-14T04:08:51.242Z,5.57
2023-04-14T04:11:20.766Z,6.05
2023-04-14T04:13:51.386Z,5.60
2023-04-14T04:16:22.301Z,5.20
2023-04-14T04:18:51.973Z,4.57
2023-04-14T04:21:28.402Z,5.68
2023-04-14T04:23:59.013Z,5.15
2023-04-14T04:26:27.489Z,6.30
2023-04-14T04:28:57.953Z,5.45
2023-04-14T04:31:29.232Z,5.03
2023-04-14T04:33:58.517Z,5.25
2023-04-14T04:36:31.708Z,5.63
2023-04-14T04:39:01.724Z,5.65
2023-04-14T04:41:35.547Z,5.22
2023-04-14T04:44:04.968Z,4.90
2023-04-14T04:46:48.279Z,4.60
2023-04-14T04:49:17.857Z,4.57
2023-04-14T04:51:47.527Z,4.53
2023-04-14T04:54:21.237Z,5.28
2023-04-14T04:56:49.597Z,5.13
2023-04-14T04:59:17.935Z,5.55
2023-04-14T05:01:46.549Z,5.35
2023-04-14T05:04:15.640Z,5.63
2023-04-14T05:06:44.122Z,5.10
2023-04-14T05:09:12.505Z,5.28
2023-04-14T05:11:44.413Z,5.60
2023-04-14T05:14:14.861Z,5.13
2023-04-14T05:16:43.306Z,5.47
2023-04-14T05:19:11.921Z,5.22
2023-04-14T05:21:40.516Z,5.03
2023-04-14T05:24:11.364Z,5.60
2023-04-14T05:29:12.610Z,5.75
2023-04-14T05:31:41.253Z,5.95
2023-04-14T05:34:09.760Z,5.32
2023-04-14T05:36:38.137Z,5.07
2023-04-14T05:39:06.642Z,5.22
2023-04-14T05:41:37.412Z,5.53
2023-04-14T05:44:05.964Z,6.47
2023-04-14T05:46:35.915Z,7.03
2023-04-14T05:49:04.906Z,6.50
2023-04-14T05:51:33.436Z,7.90
2023-04-14T05:54:02.037Z,7.13
2023-04-14T05:56:30.792Z,8.15
2023-04-14T05:58:59.210Z,7.60
2023-04-14T06:01:27.739Z,7.45
2023-04-14T06:03:58.024Z,7.05
2023-04-14T06:06:28.114Z,7.40
2023-04-14T06:08:56.652Z,8.05
2023-04-14T06:11:25.062Z,7.40
2023-04-14T06:13:53.486Z,7.03
2023-04-14T06:16:22.019Z,7.68
2023-04-14T06:18:50.527Z,7.35
2023-04-14T06:21:22.716Z,8.25
2023-04-14T06:23:51.274Z,6.97
2023-04-14T06:26:20.553Z,8.10
2023-04-14T06:28:48.961Z,7.97
2023-04-14T06:31:17.505Z,7.82
2023-04-14T06:33:46.006Z,8.10
2023-04-14T06:36:16.944Z,8.77
2023-04-14T06:38:46.854Z,8.43
2023-04-14T06:41:15.458Z,8.70
2023-04-14T06:43:43.940Z,8.57
2023-04-14T06:46:12.671Z,9.18
2023-04-14T06:48:41.183Z,9.15
2023-04-14T06:51:12.310Z,8.73
2023-04-14T06:53:40.991Z,8.80
2023-04-14T06:56:11.135Z,9.90
2023-04-14T06:58:40.230Z,10.13
2023-04-14T07:01:11.860Z,10.00
2023-04-14T07:03:40.495Z,10.23
2023-04-14T07:06:11.553Z,10.68
2023-04-14T07:08:41.267Z,30.85
2023-04-14T07:11:11.839Z,14.00
2023-04-14T07:13:40.730Z,12.70
2023-04-14T07:16:10.206Z,13.98
2023-04-14T07:18:38.689Z,15.57
2023-04-14T07:21:07.151Z,12.27
2023-04-14T07:23:35.668Z,12.52
2023-04-14T07:26:04.075Z,13.57
2023-04-14T07:28:34.057Z,14.55
2023-04-14T07:31:09.341Z,57.78
2023-04-14T07:33:37.912Z,14.95
2023-04-14T07:36:07.241Z,23.13
2023-04-14T07:38:36.380Z,17.02
2023-04-14T07:41:06.386Z,31.38
2023-04-14T07:43:36.797Z,18.27
2023-04-14T07:46:05.940Z,13.40
2023-04-14T07:48:37.143Z,13.73
2023-04-14T07:51:06.063Z,12.88
2023-04-14T07:53:35.083Z,13.18
2023-04-14T07:56:03.724Z,14.00
2023-04-14T07:58:32.122Z,14.55
2023-04-14T08:01:02.373Z,15.50
2023-04-14T08:03:31.023Z,14.98
2023-04-14T08:05:59.715Z,13.70
2023-04-14T08:08:28.293Z,13.38
2023-04-14T08:10:56.857Z,15.23
2023-04-14T08:13:27.380Z,14.35
2023-04-14T08:15:56.032Z,13.63
2023-04-14T08:18:25.881Z,14.85
2023-04-14T08:20:54.248Z,14.80
2023-04-14T08:23:23.029Z,14.05
2023-04-14T08:25:51.510Z,15.98
2023-04-14T08:28:19.923Z,14.75
2023-04-14T08:30:49.365Z,15.20
2023-04-14T08:33:19.120Z,14.15
2023-04-14T08:35:56.363Z,15.52
2023-04-14T08:38:31.011Z,15.13
2023-04-14T08:41:02.725Z,14.77
2023-04-14T08:43:31.427Z,14.40
2023-04-14T08:45:59.991Z,12.35
2023-04-14T08:48:31.784Z,13.90
2023-04-14T08:51:06.276Z,14.40
2023-04-14T08:53:35.318Z,12.77
2023-04-14T08:56:05.289Z,13.85
2023-04-14T08:58:33.772Z,12.68
2023-04-14T09:01:04.430Z,11.95
2023-04-14T09:03:33.270Z,13.38
2023-04-14T09:06:03.443Z,12.68
2023-04-14T09:08:34.920Z,14.87
2023-04-14T09:11:03.503Z,13.95
2023-04-14T09:13:34.586Z,15.95
2023-04-14T09:16:05.115Z,14.43
2023-04-14T09:18:36.543Z,16.45
2023-04-14T09:21:31.356Z,14.45
2023-04-14T09:23:55.664Z,16.30
2023-04-14T09:26:28.206Z,15.95
2023-04-14T09:28:56.634Z,16.20
2023-04-14T09:31:25.638Z,15.85
2023-04-14T09:33:55.066Z,16.73
2023-04-14T09:36:25.881Z,17.20
2023-04-14T09:38:54.311Z,17.63
2023-04-14T09:41:23.089Z,17.05
2023-04-14T09:43:52.740Z,17.48
2023-04-14T09:46:21.645Z,20.02
2023-04-14T09:48:54.169Z,18.67
2023-04-14T09:51:29.499Z,19.27
2023-04-14T09:54:03.458Z,20.65
2023-04-14T09:56:32.415Z,21.75
2023-04-14T09:59:02.459Z,21.45
2023-04-14T10:01:33.763Z,22.45
2023-04-14T10:04:03.255Z,22.15
2023-04-14T10:06:33.060Z,23.00
2023-04-14T10:09:01.984Z,22.95
2023-04-14T10:11:32.273Z,24.35
2023-04-14T10:14:04.011Z,24.05
2023-04-14T10:16:32.863Z,24.17
2023-04-14T10:19:02.827Z,25.45
2023-04-14T10:24:01.862Z,25.45
2023-04-14T10:26:30.746Z,26.50
2023-04-14T10:28:59.651Z,23.65
2023-04-14T10:31:29.661Z,23.55
2023-04-14T10:33:58.386Z,22.70
2023-04-14T10:36:27.787Z,23.02
2023-04-14T10:39:02.493Z,22.80
2023-04-14T10:41:47.465Z,21.65
2023-04-14T10:44:25.434Z,21.60
2023-04-14T10:46:56.328Z,22.63
2023-04-14T10:49:31.138Z,22.27
2023-04-14T10:52:00.457Z,22.48
2023-04-14T10:54:30.191Z,21.60
2023-04-14T10:57:12.423Z,23.48
2023-04-14T10:59:43.870Z,28.03
2023-04-14T11:02:25.584Z,21.17
2023-04-14T11:05:00.946Z,21.65
2023-04-14T11:07:31.260Z,21.25
2023-04-14T11:10:05.162Z,20.63
2023-04-14T11:12:33.679Z,22.63
2023-04-14T11:15:04.703Z,23.45
2023-04-14T11:17:34.153Z,22.35
2023-04-14T11:20:02.824Z,21.65
2023-04-14T11:22:41.465Z,20.48
2023-04-14T11:25:12.751Z,21.95
2023-04-14T11:27:41.717Z,22.48
2023-04-14T11:30:12.268Z,24.15
2023-04-14T11:32:47.798Z,24.40
2023-04-14T11:35:16.847Z,23.00
2023-04-14T11:37:45.945Z,21.65
2023-04-14T11:40:17.307Z,24.90
2023-04-14T11:42:46.807Z,23.95
2023-04-14T11:45:16.591Z,25.98
2023-04-14T11:48:01.114Z,30.13
2023-04-14T11:50:31.461Z,22.67
2023-04-14T11:53:03.110Z,21.15
2023-04-14T11:55:32.873Z,21.55
2023-04-14T11:58:01.339Z,20.60
2023-04-14T12:00:30.032Z,19.50
2023-04-14T12:02:58.973Z,19.77
2023-04-14T12:05:31.208Z,19.77
2023-04-14T12:08:00.911Z,19.08
2023-04-14T12:10:29.735Z,20.73
2023-04-14T12:13:03.356Z,18.60
2023-04-14T12:15:32.502Z,19.05
2023-04-14T12:18:01.187Z,19.40
2023-04-14T12:20:30.411Z,19.88
2023-04-14T12:23:03.066Z,21.05
2023-04-14T12:25:33.932Z,19.10
2023-04-14T12:28:06.411Z,19.23
2023-04-14T12:30:35.833Z,18.27
2023-04-14T12:33:08.365Z,18.80
2023-04-14T12:35:37.316Z,18.63
2023-04-14T12:38:12.476Z,19.25
2023-04-14T12:40:42.489Z,18.98
2023-04-14T12:43:12.325Z,18.48
2023-04-14T12:45:44.930Z,18.85
2023-04-14T12:48:14.049Z,19.25
2023-04-14T12:50:42.509Z,20.40
2023-04-14T12:53:25.989Z,18.00
2023-04-14T12:56:09.497Z,17.80
2023-04-14T12:58:39.805Z,18.30
2023-04-14T13:01:08.362Z,18.73
2023-04-14T13:03:44.878Z,18.15
2023-04-14T13:06:17.838Z,18.95
2023-04-14T13:08:46.978Z,18.20
2023-04-14T13:11:15.441Z,18.52
2023-04-14T13:13:45.753Z,17.80
2023-04-14T13:16:16.932Z,18.00
2023-04-14T13:18:47.071Z,18.45
2023-04-14T13:21:15.714Z,19.08
2023-04-14T13:23:44.286Z,18.13
2023-04-14T13:26:13.065Z,19.48
2023-04-14T13:28:41.794Z,20.13
2023-04-14T13:31:13.150Z,19.05
2023-04-14T13:33:41.673Z,18.33
2023-04-14T13:36:10.639Z,18.52
2023-04-14T13:38:39.090Z,18.75
2023-04-14T13:41:07.536Z,18.05
2023-04-14T13:43:36.250Z,19.40
2023-04-14T13:46:04.838Z,17.38
2023-04-14T13:48:37.357Z,17.73
2023-04-14T13:51:05.859Z,19.38
2023-04-14T13:53:34.263Z,19.45
2023-04-14T13:56:03.109Z,20.25
2023-04-14T13:58:31.586Z,20.65
2023-04-14T14:01:00.112Z,19.33
2023-04-14T14:03:30.662Z,20.15
2023-04-14T14:06:02.105Z,21.63
2023-04-14T14:08:30.558Z,19.88
2023-04-14T14:10:58.947Z,19.73
2023-04-14T14:13:27.779Z,20.30
2023-04-14T14:15:56.387Z,20.70
2023-04-14T14:18:25.036Z,20.58
2023-04-14T14:20:53.460Z,18.17
2023-04-14T14:23:23.372Z,26.48
2023-04-14T14:25:53.839Z,20.08
2023-04-14T14:28:23.179Z,20.63
2023-04-14T14:30:51.961Z,17.25
2023-04-14T14:33:20.345Z,15.43
2023-04-14T14:35:48.766Z,14.25
2023-04-14T14:38:17.209Z,15.38
2023-04-14T14:40:47.126Z,13.93
2023-04-14T14:43:15.724Z,14.07
2023-04-14T14:45:44.161Z,13.95
2023-04-14T14:48:13.434Z,17.25
2023-04-14T14:50:41.864Z,17.42
2023-04-14T14:53:10.202Z,20.75
2023-04-14T14:55:38.600Z,13.80
2023-04-14T14:58:09.538Z,13.40
2023-04-14T15:00:37.902Z,13.43
2023-04-14T15:03:06.484Z,14.23
2023-04-14T15:05:35.367Z,14.50
2023-04-14T15:08:04.318Z,15.15
2023-04-14T15:10:35.197Z,12.68
2023-04-14T15:13:03.669Z,14.32
2023-04-14T15:15:37.740Z,13.20
2023-04-14T15:18:07.296Z,14.00
2023-04-14T15:20:35.969Z,13.60
2023-04-14T15:23:04.372Z,13.20
2023-04-14T15:25:32.746Z,12.82
2023-04-14T15:28:01.313Z,16.05
2023-04-14T15:30:29.659Z,14.57
2023-04-14T15:32:59.547Z,16.40
2023-04-14T15:35:28.045Z,14.45
2023-04-14T15:37:56.963Z,14.07
2023-04-14T15:40:25.976Z,15.25
2023-04-14T15:42:54.841Z,14.38
2023-04-14T15:45:23.282Z,14.88
2023-04-14T15:47:52.187Z,17.23
2023-04-14T15:50:21.919Z,17.30
2023-04-14T15:52:52.790Z,17.30
2023-04-14T15:55:21.355Z,18.00
2023-04-14T15:57:50.817Z,16.38
2023-04-14T16:00:20.041Z,14.93
2023-04-14T16:02:48.638Z,16.27
2023-04-14T16:05:17.214Z,18.05
2023-04-14T16:07:47.099Z,22.05
2023-04-14T16:10:15.652Z,18.52
2023-04-14T16:12:44.387Z,19.23
2023-04-14T16:15:12.971Z,18.38
2023-04-14T16:17:42.195Z,16.95
2023-04-14T16:20:11.557Z,18.63
2023-04-14T16:22:40.376Z,18.42
2023-04-14T16:25:11.036Z,16.35
2023-04-14T16:27:39.671Z,20.48
2023-04-14T16:30:09.144Z,16.83
2023-04-14T16:32:38.096Z,18.40
2023-04-14T16:35:07.359Z,16.17
2023-04-14T16:37:36.301Z,17.20
2023-04-14T16:40:06.846Z,15.07
2023-04-14T16:42:37.944Z,16.77
2023-04-14T16:45:07.127Z,17.58
2023-04-14T16:47:35.714Z,19.73
2023-04-14T16:50:04.206Z,18.63
2023-04-14T16:52:32.611Z,15.50
2023-04-14T16:55:03.247Z,17.17
2023-04-14T16:57:32.690Z,18.00
2023-04-14T17:00:03.295Z,17.20
2023-04-14T17:02:31.911Z,26.88
2023-04-14T17:05:00.676Z,18.48
2023-04-14T17:07:29.298Z,18.65
2023-04-14T17:09:58.971Z,17.25
2023-04-14T17:12:27.404Z,29.40
2023-04-14T17:14:56.344Z,16.75
2023-04-14T17:17:26.610Z,17.27
2023-04-14T17:19:55.784Z,18.65
2023-04-14T17:22:25.535Z,20.10
2023-04-14T17:24:56.432Z,23.88
2023-04-14T17:27:24.768Z,19.55
2023-04-14T17:29:53.254Z,16.45
2023-04-14T17:32:26.273Z,18.15
2023-04-14T17:34:54.818Z,18.80
2023-04-14T17:37:23.470Z,18.50
2023-04-14T17:39:51.912Z,17.85
2023-04-14T17:42:20.431Z,18.35
2023-04-14T17:44:50.993Z,19.08
2023-04-14T17:47:21.799Z,19.73
2023-04-14T17:49:52.568Z,20.25
2023-04-14T17:52:23.499Z,20.70
2023-04-14T17:54:54.143Z,21.77
2023-04-14T17:57:22.611Z,22.48
2023-04-14T17:59:51.106Z,23.30
2023-04-14T18:02:19.592Z,22.42
2023-04-14T18:04:51.829Z,21.60
2023-04-14T18:07:20.244Z,23.35
2023-04-14T18:09:48.638Z,24.42
2023-04-14T18:12:17.063Z,23.30
2023-04-14T18:14:47.741Z,22.80
2023-04-14T18:17:16.147Z,22.70
2023-04-14T18:19:44.743Z,27.63
2023-04-14T18:22:14.563Z,25.42
2023-04-14T18:29:45.775Z,25.00
2023-04-14T18:32:14.482Z,25.00
2023-04-14T18:34:42.911Z,25.20
2023-04-14T18:37:15.803Z,29.10
2023-04-14T18:39:44.808Z,26.85
2023-04-14T18:42:13.873Z,27.60
2023-04-14T18:44:42.306Z,30.83
2023-04-14T18:47:10.662Z,31.00
2023-04-14T18:49:39.763Z,31.17
2023-04-14T18:52:08.124Z,32.25
2023-04-14T18:54:38.113Z,30.88
2023-04-14T18:57:06.432Z,31.98
2023-04-14T18:59:34.793Z,31.15
2023-04-14T19:02:04.412Z,30.63
2023-04-14T19:04:33.009Z,30.75
2023-04-14T19:07:01.628Z,34.83
2023-04-14T19:09:30.057Z,33.13
2023-04-14T19:11:59.893Z,32.55
2023-04-14T19:14:28.337Z,36.78
2023-04-14T19:16:56.720Z,33.13
2023-04-14T19:19:25.091Z,33.72
2023-04-14T19:21:53.485Z,32.85
2023-04-14T19:24:21.797Z,34.38
2023-04-14T19:26:50.400Z,37.38
2023-04-14T19:29:20.129Z,37.70
2023-04-14T19:31:48.599Z,36.15
2023-04-14T19:34:17.156Z,37.72
2023-04-14T19:36:45.747Z,37.92
2023-04-14T19:39:14.449Z,39.90
2023-04-14T19:41:43.162Z,44.50
2023-04-14T19:44:11.997Z,47.25
2023-04-14T19:46:43.030Z,39.25
2023-04-14T19:49:11.916Z,42.25
2023-04-14T19:51:40.428Z,42.03
2023-04-14T19:54:09.357Z,43.58
2023-04-14T19:56:40.841Z,45.45
2023-04-14T19:59:10.373Z,49.08
2023-04-14T20:01:38.905Z,47.25
2023-04-14T20:04:12.235Z,50.05
2023-04-14T20:06:41.448Z,52.08
2023-04-14T20:09:09.900Z,49.05
2023-04-14T20:11:38.309Z,47.78
2023-04-14T20:14:06.843Z,47.78
2023-04-14T20:16:35.673Z,42.17
2023-04-14T20:19:04.209Z,44.72
2023-04-14T20:21:34.723Z,46.83
2023-04-14T20:24:05.846Z,48.45
2023-04-14T20:26:42.373Z,46.15
2023-04-14T20:29:11.678Z,43.42
2023-04-14T20:31:41.584Z,48.75
2023-04-14T20:34:10.400Z,45.60
2023-04-14T20:36:40.179Z,44.58
2023-04-14T20:39:08.697Z,45.97
2023-04-14T20:41:39.195Z,45.85
2023-04-14T20:44:08.004Z,46.05
2023-04-14T20:46:38.958Z,46.35
2023-04-14T20:49:07.405Z,48.45
2023-04-14T20:51:37.044Z,48.38
2023-04-14T20:54:06.955Z,52.08
2023-04-14T20:56:35.398Z,51.92
2023-04-14T20:59:03.930Z,52.75
2023-04-14T21:01:32.515Z,54.60
2023-04-14T21:04:01.039Z,53.78
2023-04-14T21:06:31.700Z,52.92
2023-04-14T21:09:01.770Z,55.92
2023-04-14T21:11:31.839Z,57.30
2023-04-14T21:15:29.324Z,58.50
2023-04-14T21:16:48.970Z,58.08
2023-04-14T21:19:17.537Z,59.53
2023-04-14T21:21:46.080Z,58.65
2023-04-14T21:24:14.762Z,64.15
2023-04-14T21:26:44.624Z,60.28
2023-04-14T21:29:13.177Z,60.03
2023-04-14T21:31:41.651Z,61.38
2023-04-14T21:34:10.513Z,64.03
2023-04-14T21:36:39.433Z,61.22
2023-04-14T21:39:08.340Z,61.65
2023-04-14T21:41:39.015Z,61.75
2023-04-14T21:44:09.085Z,61.42
2023-04-14T21:46:37.741Z,61.50
2023-04-14T21:49:06.073Z,60.60
2023-04-14T21:51:34.484Z,60.10
2023-04-14T21:54:02.839Z,61.60
2023-04-14T21:56:33.841Z,61.65
2023-04-14T21:59:02.487Z,60.78
2023-04-14T22:01:32.915Z,63.25
2023-04-14T22:04:01.462Z,57.80
2023-04-14T22:06:30.269Z,60.55
2023-04-14T22:08:58.638Z,60.15
2023-04-14T22:11:28.658Z,60.75
2023-04-14T22:13:58.136Z,62.58
2023-04-14T22:16:28.555Z,63.20
2023-04-14T22:18:58.273Z,63.58
2023-04-14T22:21:26.917Z,66.00
2023-04-14T22:23:56.661Z,63.05
2023-04-14T22:26:25.302Z,62.63
2023-04-14T22:28:53.782Z,62.78
2023-04-14T22:31:24.718Z,65.00
2023-04-14T22:33:53.261Z,60.95
2023-04-14T22:36:23.189Z,62.08
2023-04-14T22:38:51.619Z,63.35
2023-04-14T22:41:20.024Z,63.10
2023-04-14T22:43:48.488Z,63.30
2023-04-14T22:46:18.027Z,63.90
2023-04-14T22:48:46.451Z,66.60
2023-04-14T22:51:14.808Z,64.18
2023-04-14T22:53:45.008Z,64.13
2023-04-14T22:56:14.716Z,66.78
2023-04-14T22:58:46.525Z,68.53
2023-04-14T23:01:21.920Z,64.13
2023-04-14T23:03:52.587Z,67.75
2023-04-14T23:06:21.445Z,69.22
2023-04-14T23:08:51.301Z,66.10
2023-04-14T23:11:21.218Z,69.13
2023-04-14T23:13:51.328Z,69.10
2023-04-14T23:16:20.735Z,68.93
2023-04-14T23:18:51.789Z,70.78
2023-04-14T23:21:20.663Z,71.40
2023-04-14T23:23:49.047Z,70.85
2023-04-14T23:26:19.674Z,69.63
2023-04-14T23:28:48.356Z,70.20
2023-04-14T23:31:17.371Z,71.38
2023-04-14T23:33:48.503Z,72.78
2023-04-14T23:36:17.285Z,72.75
2023-04-14T23:38:45.772Z,73.43
2023-04-14T23:41:14.113Z,72.50
2023-04-14T23:43:43.971Z,73.72
2023-04-14T23:46:12.416Z,74.18
2023-04-14T23:48:41.119Z,75.93
2023-04-14T23:51:17.128Z,77.28
2023-04-14T23:53:47.410Z,75.30
2023-04-14T23:56:15.810Z,77.07
2023-04-14T23:58:45.566Z,77.88
